createdAt,value
2022-07-28T00:01:24.293Z,3.92
2022-07-28T00:03:50.681Z,7.13
2022-07-28T00:06:17.498Z,5.25
2022-07-28T00:08:43.995Z,4.68
2022-07-28T00:11:10.773Z,4.95
2022-07-28T00:13:37.249Z,6.25
2022-07-28T00:16:03.843Z,4.30
2022-07-28T00:18:30.815Z,4.22
2022-07-28T00:20:58.028Z,3.55
2022-07-28T00:23:38.890Z,3.25
2022-07-28T00:26:09.916Z,7.22
2022-07-28T00:28:37.219Z,8.95
2022-07-28T00:31:06.532Z,8.00
2022-07-28T00:33:34.241Z,4.03
2022-07-28T00:36:00.661Z,5.55
2022-07-28T00:38:27.473Z,3.63
2022-07-28T00:41:11.648Z,3.33
2022-07-28T00:43:43.627Z,5.47
2022-07-28T00:46:10.919Z,4.97
2022-07-28T00:48:39.730Z,5.65
2022-07-28T00:51:09.305Z,3.47
2022-07-28T00:53:37.568Z,4.05
2022-07-28T00:56:06.372Z,3.78
2022-07-28T00:58:33.461Z,4.25
2022-07-28T01:00:59.900Z,4.72
2022-07-28T01:03:27.905Z,4.72
2022-07-28T01:06:15.168Z,3.78
2022-07-28T01:08:54.454Z,4.95
2022-07-28T01:11:42.569Z,6.80
2022-07-28T01:14:48.012Z,4.55
2022-07-28T01:17:19.272Z,5.57
2022-07-28T01:20:16.918Z,4.85
2022-07-28T01:23:15.291Z,5.45
2022-07-28T01:26:13.005Z,4.18
2022-07-28T01:28:58.212Z,4.05
2022-07-28T01:31:28.208Z,3.55
2022-07-28T01:34:08.016Z,5.22
2022-07-28T01:36:42.905Z,4.55
2022-07-28T01:39:10.638Z,6.07
2022-07-28T01:41:41.057Z,5.10
2022-07-28T01:44:13.556Z,4.55
2022-07-28T01:46:41.686Z,6.88
2022-07-28T01:49:11.031Z,5.40
2022-07-28T01:51:38.911Z,5.45
2022-07-28T01:54:06.766Z,4.10
2022-07-28T01:56:34.689Z,5.80
2022-07-28T01:59:06.432Z,4.57
2022-07-28T02:01:36.813Z,5.38
2022-07-28T02:04:06.642Z,5.80
2022-07-28T02:06:34.070Z,6.10
2022-07-28T02:09:03.229Z,4.78
2022-07-28T02:11:41.672Z,5.25
2022-07-28T02:14:15.301Z,7.60
2022-07-28T02:16:48.840Z,6.97
2022-07-28T02:19:18.004Z,4.72
2022-07-28T02:21:47.612Z,5.70
2022-07-28T02:24:17.697Z,8.55
2022-07-28T02:26:50.446Z,8.00
2022-07-28T02:29:49.131Z,6.93
2022-07-28T02:32:29.701Z,8.57
2022-07-28T02:35:06.666Z,6.32
2022-07-28T02:37:45.514Z,5.97
2022-07-28T02:40:15.174Z,4.65
2022-07-28T02:42:44.695Z,9.23
2022-07-28T02:45:13.482Z,8.38
2022-07-28T02:47:45.750Z,4.97
2022-07-28T02:50:15.490Z,6.22
2022-07-28T02:52:44.336Z,7.35
2022-07-28T02:55:14.297Z,5.95
2022-07-28T02:57:43.084Z,6.25
2022-07-28T03:00:10.584Z,5.00
2022-07-28T03:02:39.288Z,5.70
2022-07-28T03:05:11.686Z,7.80
2022-07-28T03:07:47.081Z,4.65
2022-07-28T03:10:34.107Z,4.93
2022-07-28T03:13:02.697Z,4.95
2022-07-28T03:15:29.525Z,6.90
2022-07-28T03:17:56.034Z,5.80
2022-07-28T03:20:22.895Z,6.82
2022-07-28T03:22:49.650Z,6.80
2022-07-28T03:25:48.449Z,5.57
2022-07-28T03:28:20.060Z,10.45
2022-07-28T03:30:57.297Z,6.00
2022-07-28T03:33:28.088Z,7.05
2022-07-28T03:35:58.499Z,7.35
2022-07-28T03:38:30.012Z,5.78
2022-07-28T03:40:56.580Z,7.18
2022-07-28T03:43:25.984Z,6.32
2022-07-28T03:45:52.828Z,6.40
2022-07-28T03:48:23.262Z,6.32
2022-07-28T03:50:49.649Z,6.95
2022-07-28T03:53:21.920Z,6.68
2022-07-28T03:55:50.868Z,6.90
2022-07-28T03:58:19.858Z,6.15
2022-07-28T04:00:47.472Z,6.28
2022-07-28T04:03:36.594Z,5.35
2022-07-28T04:06:02.490Z,6.10
2022-07-28T04:08:28.881Z,6.72
2022-07-28T04:10:55.516Z,6.25
2022-07-28T04:13:22.408Z,8.27
2022-07-28T04:15:49.229Z,7.05
2022-07-28T04:18:15.604Z,7.10
2022-07-28T04:20:42.553Z,7.00
2022-07-28T04:23:09.121Z,5.88
2022-07-28T04:25:35.501Z,6.18
2022-07-28T04:28:02.810Z,6.20
2022-07-28T04:30:32.589Z,5.10
2022-07-28T04:32:58.952Z,5.70
2022-07-28T04:35:27.610Z,6.85
2022-07-28T04:37:58.564Z,8.18
2022-07-28T04:40:27.261Z,7.38
2022-07-28T04:42:54.445Z,7.25
2022-07-28T04:45:21.436Z,9.13
2022-07-28T04:47:48.320Z,5.55
2022-07-28T04:50:20.583Z,5.15
2022-07-28T04:52:49.927Z,5.03
2022-07-28T04:55:17.371Z,5.63
2022-07-28T04:57:43.997Z,7.57
2022-07-28T05:00:13.304Z,6.30
2022-07-28T05:02:44.515Z,6.15
2022-07-28T05:05:12.167Z,7.70
2022-07-28T05:07:39.569Z,8.15
2022-07-28T05:10:08.085Z,7.32
2022-07-28T05:12:34.552Z,10.05
2022-07-28T05:15:01.436Z,7.65
2022-07-28T05:17:27.789Z,7.80
2022-07-28T05:19:54.689Z,10.20
2022-07-28T05:22:21.185Z,8.98
2022-07-28T05:24:47.572Z,9.43
2022-07-28T05:27:14.553Z,8.02
2022-07-28T05:29:47.068Z,7.47
2022-07-28T05:32:16.688Z,8.68
2022-07-28T05:34:44.135Z,7.97
2022-07-28T05:37:10.505Z,9.20
2022-07-28T05:39:37.762Z,11.25
2022-07-28T05:42:04.309Z,9.27
2022-07-28T05:44:33.558Z,11.63
2022-07-28T05:47:04.540Z,9.57
2022-07-28T05:49:31.438Z,10.75
2022-07-28T05:51:58.389Z,7.57
2022-07-28T05:54:24.817Z,8.57
2022-07-28T05:56:52.561Z,9.55
2022-07-28T05:59:19.540Z,8.60
2022-07-28T06:01:46.521Z,8.45
2022-07-28T06:04:29.041Z,6.30
2022-07-28T06:06:56.584Z,8.75
2022-07-28T06:09:22.969Z,8.75
2022-07-28T06:11:50.549Z,9.35
2022-07-28T06:14:18.288Z,8.30
2022-07-28T06:16:45.288Z,10.13
2022-07-28T06:19:12.609Z,12.82
2022-07-28T06:21:38.967Z,7.97
2022-07-28T06:24:08.284Z,7.10
2022-07-28T06:26:38.614Z,9.30
2022-07-28T06:31:35.646Z,8.98
2022-07-28T06:34:02.654Z,8.23
2022-07-28T06:36:29.025Z,9.23
2022-07-28T06:38:55.396Z,9.30
2022-07-28T06:41:22.275Z,8.15
2022-07-28T06:43:48.652Z,9.95
2022-07-28T06:46:18.614Z,10.88
2022-07-28T06:48:46.363Z,10.27
2022-07-28T06:51:12.985Z,9.05
2022-07-28T06:53:39.421Z,9.70
2022-07-28T06:56:06.292Z,8.68
2022-07-28T06:58:34.449Z,8.77
2022-07-28T07:01:02.509Z,11.02
2022-07-28T07:03:29.467Z,7.93
2022-07-28T07:05:55.841Z,10.05
2022-07-28T07:08:22.553Z,8.55
2022-07-28T07:10:48.967Z,7.50
2022-07-28T07:13:15.592Z,9.65
2022-07-28T07:15:42.417Z,8.70
2022-07-28T07:18:09.196Z,8.25
2022-07-28T07:20:35.559Z,8.05
2022-07-28T07:23:01.959Z,9.95
2022-07-28T07:25:28.760Z,9.60
2022-07-28T07:27:55.156Z,11.15
2022-07-28T07:30:21.650Z,10.90
2022-07-28T07:32:48.778Z,9.82
2022-07-28T07:35:15.214Z,6.80
2022-07-28T07:37:41.803Z,9.00
2022-07-28T07:40:09.627Z,7.55
2022-07-28T07:42:36.407Z,8.98
2022-07-28T07:45:03.355Z,9.20
2022-07-28T07:47:30.219Z,8.35
2022-07-28T07:49:56.688Z,8.82
2022-07-28T07:52:23.065Z,8.75
2022-07-28T07:54:49.869Z,9.07
2022-07-28T07:57:16.250Z,10.85
2022-07-28T07:59:42.645Z,9.20
2022-07-28T08:02:09.558Z,13.30
2022-07-28T08:04:37.744Z,7.78
2022-07-28T08:07:05.684Z,9.55
2022-07-28T08:09:32.791Z,8.25
2022-07-28T08:11:59.155Z,10.45
2022-07-28T08:14:25.537Z,8.15
2022-07-28T08:16:52.664Z,7.82
2022-07-28T08:19:21.474Z,8.27
2022-07-28T08:21:48.752Z,13.43
2022-07-28T08:24:30.277Z,7.82
2022-07-28T08:27:03.999Z,10.75
2022-07-28T08:29:30.694Z,9.70
2022-07-28T08:31:57.686Z,9.80
2022-07-28T08:34:28.472Z,9.38
2022-07-28T08:37:05.864Z,8.63
2022-07-28T08:39:33.685Z,7.50
2022-07-28T08:42:07.889Z,7.82
2022-07-28T08:44:47.143Z,7.30
2022-07-28T08:47:16.277Z,9.68
2022-07-28T08:49:43.276Z,8.50
2022-07-28T08:52:12.098Z,8.88
2022-07-28T08:54:45.868Z,10.35
2022-07-28T08:57:18.155Z,8.73
2022-07-28T08:59:46.912Z,7.25
2022-07-28T09:02:14.541Z,8.43
2022-07-28T09:04:41.546Z,11.32
2022-07-28T09:07:11.124Z,9.93
2022-07-28T09:09:38.528Z,8.02
2022-07-28T09:12:05.841Z,9.90
2022-07-28T09:14:33.850Z,6.90
2022-07-28T09:17:02.134Z,12.27
2022-07-28T09:19:34.317Z,9.40
2022-07-28T09:22:03.623Z,8.73
2022-07-28T09:24:32.988Z,9.50
2022-07-28T09:27:01.209Z,8.50
2022-07-28T09:29:29.832Z,7.32
2022-07-28T09:31:57.197Z,7.93
2022-07-28T09:34:25.024Z,8.30
2022-07-28T09:36:51.551Z,7.78
2022-07-28T09:39:32.609Z,9.23
2022-07-28T09:41:59.481Z,9.60
2022-07-28T09:44:27.728Z,7.18
2022-07-28T09:46:57.233Z,7.90
2022-07-28T09:49:44.602Z,9.90
2022-07-28T09:52:11.792Z,7.10
2022-07-28T09:54:40.936Z,7.18
2022-07-28T09:57:10.337Z,11.57
2022-07-28T09:59:42.425Z,7.53
2022-07-28T10:02:12.351Z,7.38
2022-07-28T10:04:42.777Z,8.25
2022-07-28T10:07:19.441Z,6.20
2022-07-28T10:10:04.258Z,7.35
2022-07-28T10:12:33.194Z,6.50
2022-07-28T10:15:32.357Z,7.97
2022-07-28T10:17:59.331Z,5.60
2022-07-28T10:20:28.101Z,7.80
2022-07-28T10:23:06.201Z,9.77
2022-07-28T10:25:34.538Z,6.50
2022-07-28T10:28:02.515Z,6.75
2022-07-28T10:30:32.066Z,6.82
2022-07-28T10:33:02.050Z,6.93
2022-07-28T10:35:29.603Z,6.72
2022-07-28T10:38:00.711Z,7.78
2022-07-28T10:40:29.648Z,7.30
2022-07-28T10:42:56.657Z,9.43
2022-07-28T10:45:32.576Z,8.10
2022-07-28T10:48:09.093Z,6.32
2022-07-28T10:50:39.925Z,6.78
2022-07-28T10:53:07.846Z,7.03
2022-07-28T10:55:51.068Z,5.35
2022-07-28T10:58:29.080Z,9.05
2022-07-28T11:00:59.801Z,8.52
2022-07-28T11:03:47.537Z,7.70
2022-07-28T11:06:40.185Z,5.23
2022-07-28T11:09:15.389Z,7.97
2022-07-28T11:11:50.438Z,6.45
2022-07-28T11:14:22.722Z,6.20
2022-07-28T11:17:11.785Z,6.55
2022-07-28T11:20:06.763Z,5.78
2022-07-28T11:22:32.140Z,6.32
2022-07-28T11:25:19.149Z,6.63
2022-07-28T11:27:51.975Z,7.07
2022-07-28T11:30:19.817Z,6.13
2022-07-28T11:32:55.625Z,7.68
2022-07-28T11:35:24.289Z,7.22
2022-07-28T11:38:03.083Z,6.55
2022-07-28T11:40:40.096Z,6.70
2022-07-28T11:43:37.494Z,6.80
2022-07-28T11:46:09.401Z,6.43
2022-07-28T11:48:40.968Z,7.13
2022-07-28T11:51:07.810Z,6.20
2022-07-28T11:53:43.294Z,6.13
2022-07-28T11:56:12.115Z,4.35
2022-07-28T11:58:40.383Z,6.72
2022-07-28T12:01:19.120Z,5.75
2022-07-28T12:03:55.286Z,3.95
2022-07-28T12:06:35.948Z,4.93
2022-07-28T12:09:07.470Z,5.30
2022-07-28T12:11:41.409Z,5.68
2022-07-28T12:14:09.059Z,6.80
2022-07-28T12:16:37.820Z,6.05
2022-07-28T12:19:07.808Z,6.63
2022-07-28T12:21:49.058Z,5.30
2022-07-28T12:24:44.768Z,6.63
2022-07-28T12:27:14.808Z,5.30
2022-07-28T12:29:42.216Z,6.50
2022-07-28T12:32:12.053Z,5.65
2022-07-28T12:34:40.700Z,6.50
2022-07-28T12:37:10.836Z,5.28
2022-07-28T12:39:39.658Z,6.38
2022-07-28T12:42:09.953Z,4.32
2022-07-28T12:44:38.378Z,5.15
2022-07-28T12:47:11.073Z,7.63
2022-07-28T12:49:39.235Z,5.45
2022-07-28T12:52:35.430Z,8.55
2022-07-28T12:55:01.791Z,5.15
2022-07-28T12:57:50.324Z,4.35
2022-07-28T13:00:20.279Z,4.20
2022-07-28T13:02:48.843Z,3.80
2022-07-28T13:05:32.320Z,6.15
2022-07-28T13:08:04.860Z,5.65
2022-07-28T13:10:32.000Z,4.10
2022-07-28T13:13:06.823Z,6.30
2022-07-28T13:15:33.418Z,5.50
2022-07-28T13:18:00.166Z,4.22
2022-07-28T13:20:27.799Z,5.07
2022-07-28T13:22:54.845Z,4.57
2022-07-28T13:25:21.658Z,4.45
2022-07-28T13:27:54.309Z,3.83
2022-07-28T13:30:22.559Z,5.03
2022-07-28T13:32:49.069Z,5.50
2022-07-28T13:35:15.702Z,4.85
2022-07-28T13:37:44.580Z,5.60
2022-07-28T13:40:11.784Z,4.50
2022-07-28T13:42:38.154Z,7.95
2022-07-28T13:45:05.337Z,3.72
2022-07-28T13:47:35.579Z,7.32
2022-07-28T13:50:06.273Z,4.95
2022-07-28T13:52:34.834Z,4.00
2022-07-28T13:55:03.937Z,4.28
2022-07-28T13:57:33.754Z,5.65
2022-07-28T14:00:07.546Z,3.63
2022-07-28T14:02:35.471Z,5.55
2022-07-28T14:05:01.991Z,3.67
2022-07-28T14:07:28.560Z,4.55
2022-07-28T14:09:55.563Z,4.00
2022-07-28T14:12:22.116Z,5.70
2022-07-28T14:14:49.033Z,4.40
2022-07-28T14:20:09.849Z,4.72
2022-07-28T14:22:36.569Z,5.03
2022-07-28T14:25:03.102Z,5.03
2022-07-28T14:27:30.215Z,4.15
2022-07-28T14:29:56.614Z,3.80
2022-07-28T14:32:23.158Z,4.53
2022-07-28T14:34:49.748Z,5.07
2022-07-28T14:37:17.174Z,6.00
2022-07-28T14:39:43.872Z,4.38
2022-07-28T14:42:10.622Z,3.25
2022-07-28T14:44:37.079Z,3.22
2022-07-28T14:47:04.280Z,3.70
2022-07-28T14:49:31.112Z,7.22
2022-07-28T14:51:59.131Z,7.32
2022-07-28T14:54:25.609Z,4.95
2022-07-28T14:56:52.394Z,4.63
2022-07-28T14:59:19.192Z,2.78
2022-07-28T15:01:47.260Z,6.43
2022-07-28T15:04:15.901Z,4.35
2022-07-28T15:06:42.941Z,3.15
2022-07-28T15:09:09.540Z,4.28
2022-07-28T15:11:36.555Z,4.55
2022-07-28T15:14:04.293Z,3.83
2022-07-28T15:16:30.798Z,5.22
2022-07-28T15:18:57.579Z,3.78
2022-07-28T15:21:24.189Z,3.90
2022-07-28T15:23:50.629Z,2.08
2022-07-28T15:26:17.584Z,4.78
2022-07-28T15:28:44.031Z,4.28
2022-07-28T15:31:11.040Z,6.28
2022-07-28T15:33:42.516Z,3.13
2022-07-28T15:36:15.568Z,5.32
2022-07-28T15:38:47.148Z,4.00
2022-07-28T15:41:15.991Z,4.32
2022-07-28T15:43:42.931Z,2.80
2022-07-28T15:46:11.653Z,3.55
2022-07-28T15:48:40.005Z,3.25
2022-07-28T15:51:06.942Z,7.55
2022-07-28T15:53:34.258Z,3.78
2022-07-28T15:56:01.052Z,4.95
2022-07-28T15:58:27.725Z,3.85
2022-07-28T16:00:54.093Z,7.07
2022-07-28T16:03:22.520Z,4.47
2022-07-28T16:05:50.024Z,4.55
2022-07-28T16:08:18.388Z,4.63
2022-07-28T16:10:49.207Z,7.60
2022-07-28T16:13:22.678Z,5.60
2022-07-28T16:15:59.228Z,3.88
2022-07-28T16:18:25.835Z,4.55
2022-07-28T16:20:52.601Z,4.03
2022-07-28T16:23:18.956Z,4.68
2022-07-28T16:25:45.915Z,3.53
2022-07-28T16:28:12.836Z,4.20
2022-07-28T16:30:39.187Z,3.85
2022-07-28T16:33:05.740Z,3.67
2022-07-28T16:35:34.817Z,3.85
2022-07-28T16:38:05.915Z,6.88
2022-07-28T16:40:32.987Z,5.50
2022-07-28T16:43:03.655Z,5.30
2022-07-28T16:45:31.122Z,4.85
2022-07-28T16:47:58.138Z,4.07
2022-07-28T16:50:25.092Z,4.20
2022-07-28T16:52:52.483Z,4.18
2022-07-28T16:55:23.383Z,3.65
2022-07-28T16:57:50.999Z,2.72
2022-07-28T17:00:18.808Z,3.63
2022-07-28T17:02:45.431Z,4.53
2022-07-28T17:05:12.629Z,4.20
2022-07-28T17:07:45.214Z,5.85
2022-07-28T17:10:13.971Z,4.82
2022-07-28T17:12:40.376Z,5.07
2022-07-28T17:15:07.823Z,3.05
2022-07-28T17:17:47.021Z,5.32
2022-07-28T17:20:13.592Z,3.65
2022-07-28T17:22:40.207Z,3.85
2022-07-28T17:25:28.612Z,4.28
2022-07-28T17:27:53.884Z,5.07
2022-07-28T17:30:21.545Z,5.80
2022-07-28T17:32:48.512Z,4.90
2022-07-28T17:35:34.544Z,6.05
2022-07-28T17:38:02.293Z,6.22
2022-07-28T17:40:28.818Z,4.68
2022-07-28T17:42:55.564Z,5.35
2022-07-28T17:45:22.059Z,7.78
2022-07-28T17:47:48.479Z,3.20
2022-07-28T17:50:15.624Z,5.57
2022-07-28T17:52:42.613Z,4.35
2022-07-28T17:55:28.554Z,3.72
2022-07-28T17:57:57.907Z,5.40
2022-07-28T18:00:24.308Z,3.60
2022-07-28T18:02:50.930Z,4.15
2022-07-28T18:05:18.450Z,5.95
2022-07-28T18:07:51.266Z,9.05
2022-07-28T18:10:24.601Z,4.10
2022-07-28T18:12:52.218Z,3.55
2022-07-28T18:15:18.910Z,3.30
2022-07-28T18:17:54.828Z,5.93
2022-07-28T18:20:23.161Z,6.03
2022-07-28T18:22:50.554Z,3.80
2022-07-28T18:25:17.166Z,6.68
2022-07-28T18:27:44.099Z,5.65
2022-07-28T18:30:11.414Z,4.47
2022-07-28T18:32:38.144Z,4.05
2022-07-28T18:35:04.793Z,5.97
2022-07-28T18:37:31.184Z,3.78
2022-07-28T18:39:57.964Z,6.20
2022-07-28T18:42:24.497Z,3.47
2022-07-28T18:44:50.860Z,3.78
2022-07-28T18:47:17.250Z,4.32
2022-07-28T18:49:44.053Z,4.80
2022-07-28T18:52:10.452Z,3.35
2022-07-28T18:54:36.817Z,6.45
2022-07-28T18:57:03.272Z,3.45
2022-07-28T18:59:30.104Z,4.07
2022-07-28T19:01:56.572Z,5.55
2022-07-28T19:04:23.066Z,4.45
2022-07-28T19:06:50.120Z,4.93
2022-07-28T19:09:17.147Z,3.70
2022-07-28T19:11:46.289Z,3.72
2022-07-28T19:14:16.989Z,3.65
2022-07-28T19:16:44.352Z,3.25
2022-07-28T19:19:10.759Z,5.00
2022-07-28T19:21:37.114Z,3.20
2022-07-28T19:24:09.861Z,6.47
2022-07-28T19:26:36.631Z,6.35
2022-07-28T19:29:03.864Z,4.38
2022-07-28T19:31:30.418Z,6.43
2022-07-28T19:33:57.905Z,4.15
2022-07-28T19:36:24.265Z,4.38
2022-07-28T19:38:50.637Z,5.20
2022-07-28T19:41:17.644Z,4.68
2022-07-28T19:43:44.108Z,3.25
2022-07-28T19:46:10.778Z,4.50
2022-07-28T19:48:38.638Z,4.88
2022-07-28T19:51:05.477Z,3.25
2022-07-28T19:53:35.721Z,3.33
2022-07-28T19:56:03.843Z,4.57
2022-07-28T19:58:33.636Z,4.18
2022-07-28T20:01:00.242Z,5.30
2022-07-28T20:04:03.843Z,5.97
2022-07-28T20:06:14.175Z,3.95
2022-07-28T20:08:41.040Z,4.65
2022-07-28T20:11:08.129Z,4.38
2022-07-28T20:13:34.578Z,5.93
2022-07-28T20:16:01.412Z,4.03
2022-07-28T20:18:27.772Z,5.22
2022-07-28T20:20:54.254Z,5.53
2022-07-28T20:23:20.865Z,7.53
2022-07-28T20:25:47.369Z,12.25
2022-07-28T20:28:13.792Z,4.68
2022-07-28T20:30:40.946Z,4.78
2022-07-28T20:33:08.124Z,5.68
2022-07-28T20:35:34.556Z,6.65
2022-07-28T20:38:02.078Z,7.47
2022-07-28T20:40:28.488Z,6.45
2022-07-28T20:42:55.059Z,4.53
2022-07-28T20:45:21.901Z,3.80
2022-07-28T20:47:48.258Z,6.50
2022-07-28T20:50:16.121Z,6.90
2022-07-28T20:52:42.782Z,4.80
2022-07-28T20:55:11.176Z,6.38
2022-07-28T20:57:38.053Z,5.60
2022-07-28T21:00:06.280Z,3.63
2022-07-28T21:02:32.682Z,3.58
2022-07-28T21:04:59.238Z,3.83
2022-07-28T21:07:59.984Z,4.82
2022-07-28T21:10:12.489Z,5.75
2022-07-28T21:12:39.317Z,6.82
2022-07-28T21:15:07.905Z,5.50
2022-07-28T21:17:35.681Z,5.63
2022-07-28T21:20:02.395Z,4.45
2022-07-28T21:22:28.744Z,4.05
2022-07-28T21:24:55.895Z,4.13
2022-07-28T21:27:23.544Z,7.53
2022-07-28T21:32:17.838Z,7.57
2022-07-28T21:34:44.242Z,7.03
2022-07-28T21:37:12.671Z,5.28
2022-07-28T21:39:39.188Z,5.95
2022-07-28T21:42:08.358Z,6.63
2022-07-28T21:44:35.557Z,5.05
2022-07-28T21:47:02.447Z,6.10
2022-07-28T21:49:31.009Z,6.28
2022-07-28T21:51:57.416Z,8.43
2022-07-28T21:54:24.171Z,8.15
2022-07-28T21:56:50.526Z,10.65
2022-07-28T21:59:16.928Z,10.50
2022-07-28T22:01:43.793Z,10.68
2022-07-28T22:04:10.240Z,11.45
2022-07-28T22:06:36.721Z,10.15
2022-07-28T22:09:03.951Z,10.15
2022-07-28T22:11:30.554Z,14.02
2022-07-28T22:13:57.137Z,8.68
2022-07-28T22:16:23.936Z,10.43
2022-07-28T22:18:50.310Z,10.20
2022-07-28T22:21:17.207Z,10.75
2022-07-28T22:23:43.570Z,10.68
2022-07-28T22:26:09.986Z,10.23
2022-07-28T22:28:36.848Z,9.60
2022-07-28T22:31:09.381Z,10.38
2022-07-28T22:33:37.557Z,9.90
2022-07-28T22:36:05.220Z,15.02
2022-07-28T22:38:31.715Z,9.70
2022-07-28T22:40:58.999Z,14.13
2022-07-28T22:43:25.494Z,10.63
2022-07-28T22:45:52.005Z,9.23
2022-07-28T22:48:19.500Z,10.30
2022-07-28T22:50:45.962Z,10.20
2022-07-28T22:53:12.346Z,11.70
2022-07-28T22:55:40.226Z,13.60
2022-07-28T22:58:06.703Z,11.65
2022-07-28T23:00:36.162Z,9.55
2022-07-28T23:03:04.021Z,12.88
2022-07-28T23:05:30.621Z,8.75
2022-07-28T23:07:58.757Z,16.65
2022-07-28T23:10:26.665Z,10.15
2022-07-28T23:12:55.155Z,14.02
2022-07-28T23:15:25.096Z,7.65
2022-07-28T23:18:07.803Z,7.97
2022-07-28T23:20:34.198Z,12.02
2022-07-28T23:23:00.565Z,12.23
2022-07-28T23:25:27.744Z,13.82
2022-07-28T23:27:54.525Z,12.65
2022-07-28T23:30:20.934Z,12.18
2022-07-28T23:32:49.930Z,14.20
2022-07-28T23:35:16.945Z,12.43
2022-07-28T23:37:43.319Z,13.07
2022-07-28T23:40:10.368Z,16.42
2022-07-28T23:42:37.181Z,17.83
2022-07-28T23:45:04.612Z,15.40
2022-07-28T23:47:31.239Z,11.68
2022-07-28T23:49:57.990Z,12.93
2022-07-28T23:52:24.348Z,10.25
2022-07-28T23:54:50.699Z,10.43
2022-07-28T23:57:17.484Z,9.70
2022-07-28T23:59:43.925Z,10.52
